Terminal Aerodrome Forecast
Issued by NWS Sioux Falls, SD

Home | Current Version | Previous Version | Text Only | Print | Product List | Glossary Off
Versions: 1 2 3 4 5 6 7 8 9 10 11 12

000
FTUS43 KFSD 131130
TAFFSD
TAF
KFSD 131130Z 1312/1412 19007KT P6SM SKC
     FM131500 19012KT P6SM SKC
     FM131700 19015G22KT P6SM FEW050
     FM140100 18008KT P6SM FEW080=

USA.gov is the U.S. government's official web portal to all federal, state and local government web resources and services.